Richard Maersk — OYIZ2 — position and weather

sailwx.info

Track history (hours):
 
Tides and Currents Weather Stations Pressure Air Temp Water Temp Dewpoint Dewpoint Depression Visibility Wind Speed Wind Dir Waves Ship Positions

Richard Maersk

Last reported at 2016-Feb-14 06:33 UTC. Time now 2016-Feb-14 23:02 UTC.
Position N 01°15' E 103°60'.

Length 171 m; draft 6 m.

Type: Ship (hazmat cat A). MMSI: 219967000.

Date/timePositionNaut miles runAvg speedWind from/ knotsBaromVisibWave heightAir tempDewpointWater temp
2016-Feb-14 06:33N 01°15' E 103°60'3 2.6
2016-Feb-14 05:20N 01°17' E 103°57'0 0.0
2016-Feb-14 03:17N 01°17' E 103°57'0 0.0
2016-Feb-14 00:29N 01°17' E 103°57'0 0.0
2016-Feb-13 23:05N 01°17' E 103°57'0 0.0
2016-Feb-13 22:14N 01°17' E 103°57'0 0.0
2016-Feb-13 20:17N 01°17' E 103°57'0 0.0
2016-Feb-13 19:32N 01°17' E 103°57'0 0.0
2016-Feb-13 17:32N 01°17' E 103°57'0 0.0
2016-Feb-13 15:29N 01°17' E 103°57'0 0.0
2016-Feb-13 14:23N 01°17' E 103°57'0 0.0
2016-Feb-13 13:26N 01°17' E 103°57'0 0.1
2016-Feb-13 12:26N 01°17' E 103°57'0 0.0
2016-Feb-13 11:32N 01°17' E 103°57'0 0.0
2016-Feb-13 10:11N 01°17' E 103°57'0 0.0
2016-Feb-13 09:17N 01°17' E 103°57'0 0.0
2016-Feb-13 08:23N 01°17' E 103°57'2 1.9
2016-Feb-13 07:30N 01°15' E 103°57'3 3.5
2016-Feb-13 06:33N 01°13' E 103°55'13 0.5
2016-Feb-12 04:26N 01°09' E 103°42'7 7.5
2016-Feb-12 03:33N 01°13' E 103°48'1 0.7
2016-Feb-12 01:26N 01°14' E 103°48'0 0.0
2016-Feb-12 00:32N 01°14' E 103°48'0 0.0
2016-Feb-11 19:32N 01°14' E 103°48'0 0.1
2016-Feb-11 18:23N 01°14' E 103°48'0 0.0
2016-Feb-11 17:26N 01°14' E 103°48'0 0.0
2016-Feb-11 16:32N 01°14' E 103°48'0 0.1
2016-Feb-11 15:26N 01°14' E 103°48'0 0.1
2016-Feb-11 14:11N 01°14' E 103°48'0 0.1
2016-Feb-11 13:32N 01°14' E 103°48'0 0.1
2016-Feb-11 12:32N 01°14' E 103°48'0 0.0
2016-Feb-11 11:32N 01°14' E 103°48'0 0.0
2016-Feb-11 10:32N 01°14' E 103°48'0 0.0
2016-Feb-11 09:32N 01°14' E 103°48'0 0.1
2016-Feb-11 08:26N 01°14' E 103°48'0 0.1
2016-Feb-11 07:20N 01°14' E 103°48'6 7.7
2016-Feb-11 06:32N 01°13' E 103°41'84 8.0
2016-Feb-10 20:06N 01°48' E 102°26'5 9.3
2016-Feb-10 19:33N 01°51' E 102°21'8 0.2
2016-Feb-09 06:33N 01°51' E 102°29'8812.0
2016-Feb-08 23:11N 01°09' E 103°46'5 2.6
2016-Feb-08 21:15N 01°14' E 103°49'0 0.0
2016-Feb-08 19:33N 01°14' E 103°49'0 0.0
2016-Feb-08 17:27N 01°14' E 103°49'0 0.0
2016-Feb-08 04:21N 01°14' E 103°49'0 0.0
2016-Feb-07 04:06N 01°14' E 103°49'0 0.0
2016-Feb-07 02:21N 01°14' E 103°49'4 4.0
2016-Feb-07 01:27N 01°15' E 103°45'4 0.1
2016-Feb-05 20:30N 01°14' E 103°41'  
Track history (hours):
 
Tides and Currents Weather Stations Pressure Air Temp Water Temp Dewpoint Dewpoint Depression Visibility Wind Speed Wind Dir Waves Ship Positions

Richard Maersk

Last reported at 2016-Feb-14 06:33 UTC. Time now 2016-Feb-14 23:02 UTC.
Position N 01°15' E 103°60'.

Length 171 m; draft 6 m.

Type: Ship (hazmat cat A). MMSI: 219967000.

Date/timePositionNaut miles runAvg speedWind from/ knotsBaromVisibWave heightAir tempDewpointWater temp
2016-Feb-14 06:33N 01°15' E 103°60'3 2.6
2016-Feb-14 05:20N 01°17' E 103°57'0 0.0
2016-Feb-14 03:17N 01°17' E 103°57'0 0.0
2016-Feb-14 00:29N 01°17' E 103°57'0 0.0
2016-Feb-13 23:05N 01°17' E 103°57'0 0.0
2016-Feb-13 22:14N 01°17' E 103°57'0 0.0
2016-Feb-13 20:17N 01°17' E 103°57'0 0.0
2016-Feb-13 19:32N 01°17' E 103°57'0 0.0
2016-Feb-13 17:32N 01°17' E 103°57'0 0.0
2016-Feb-13 15:29N 01°17' E 103°57'0 0.0
2016-Feb-13 14:23N 01°17' E 103°57'0 0.0
2016-Feb-13 13:26N 01°17' E 103°57'0 0.1
2016-Feb-13 12:26N 01°17' E 103°57'0 0.0
2016-Feb-13 11:32N 01°17' E 103°57'0 0.0
2016-Feb-13 10:11N 01°17' E 103°57'0 0.0
2016-Feb-13 09:17N 01°17' E 103°57'0 0.0
2016-Feb-13 08:23N 01°17' E 103°57'2 1.9
2016-Feb-13 07:30N 01°15' E 103°57'3 3.5
2016-Feb-13 06:33N 01°13' E 103°55'13 0.5
2016-Feb-12 04:26N 01°09' E 103°42'7 7.5
2016-Feb-12 03:33N 01°13' E 103°48'1 0.7
2016-Feb-12 01:26N 01°14' E 103°48'0 0.0
2016-Feb-12 00:32N 01°14' E 103°48'0 0.0
2016-Feb-11 19:32N 01°14' E 103°48'0 0.1
2016-Feb-11 18:23N 01°14' E 103°48'0 0.0
2016-Feb-11 17:26N 01°14' E 103°48'0 0.0
2016-Feb-11 16:32N 01°14' E 103°48'0 0.1
2016-Feb-11 15:26N 01°14' E 103°48'0 0.1
2016-Feb-11 14:11N 01°14' E 103°48'0 0.1
2016-Feb-11 13:32N 01°14' E 103°48'0 0.1
2016-Feb-11 12:32N 01°14' E 103°48'0 0.0
2016-Feb-11 11:32N 01°14' E 103°48'0 0.0
2016-Feb-11 10:32N 01°14' E 103°48'0 0.0
2016-Feb-11 09:32N 01°14' E 103°48'0 0.1
2016-Feb-11 08:26N 01°14' E 103°48'0 0.1
2016-Feb-11 07:20N 01°14' E 103°48'6 7.7
2016-Feb-11 06:32N 01°13' E 103°41'84 8.0
2016-Feb-10 20:06N 01°48' E 102°26'5 9.3
2016-Feb-10 19:33N 01°51' E 102°21'8 0.2
2016-Feb-09 06:33N 01°51' E 102°29'8812.0
2016-Feb-08 23:11N 01°09' E 103°46'5 2.6
2016-Feb-08 21:15N 01°14' E 103°49'0 0.0
2016-Feb-08 19:33N 01°14' E 103°49'0 0.0
2016-Feb-08 17:27N 01°14' E 103°49'0 0.0
2016-Feb-08 04:21N 01°14' E 103°49'0 0.0
2016-Feb-07 04:06N 01°14' E 103°49'0 0.0
2016-Feb-07 02:21N 01°14' E 103°49'4 4.0
2016-Feb-07 01:27N 01°15' E 103°45'4 0.1
2016-Feb-05 20:30N 01°14' E 103°41'  

Dump ship's entire track history